| time (UTC) | temp C | wind direction | speed KPH | gust KPH | rain 1hr cm | rain 24hr cm | rain mn cm | humidity % | barometer mb |
| 20260905170003 | 20 | 314 | 6.4 | 16.1 | 0.00 | 0.05 | 0.05 | 51 | 1020.3 |
| 20260905165503 | 20 | 312 | 6.4 | 14.5 | 0.00 | 0.05 | 0.05 | 51 | 1020.2 |
| 20260905165003 | 20 | 312 | 8.0 | 12.9 | 0.00 | 0.05 | 0.05 | 50 | 1020.1 |
| 20260905164719 | 20 | 317 | 8.0 | 14.5 | 0.00 | 0.05 | 0.05 | 50 | 1020.1 |
| 20260905164003 | 20 | 298 | 9.7 | 17.7 | 0.00 | 0.05 | 0.05 | 50 | 1020.0 |
| 20260905163503 | 20 | 303 | 11.3 | 20.9 | 0.00 | 0.05 | 0.05 | 50 | 1020.0 |
| 20260905163003 | 20 | 311 | 11.3 | 20.9 | 0.00 | 0.05 | 0.05 | 49 | 1019.9 |
| 20260905162503 | 20 | 318 | 11.3 | 20.9 | 0.00 | 0.05 | 0.05 | 49 | 1020.0 |
| 20260905162003 | 20 | 312 | 12.9 | 22.5 | 0.00 | 0.05 | 0.05 | 50 | 1019.9 |
| 20260905161507 | 20 | 298 | 12.9 | 22.5 | 0.00 | 0.05 | 0.05 | 50 | 1019.9 |
| 20260905161003 | 20 | 293 | 12.9 | 24.1 | 0.00 | 0.05 | 0.05 | 49 | 1019.8 |
| 20260905160718 | 20 | 293 | 16.1 | 27.4 | 0.00 | 0.05 | 0.05 | 49 | 1019.8 |
| 20260905160003 | 21 | 285 | 16.1 | 29.0 | 0.00 | 0.05 | 0.05 | 49 | 1019.7 |
| 20260905155503 | 21 | 286 | 16.1 | 32.2 | 0.00 | 0.05 | 0.05 | 49 | 1019.6 |
| 20260905155003 | 21 | 291 | 12.9 | 32.2 | 0.00 | 0.05 | 0.05 | 50 | 1019.6 |
| 20260905154503 | 21 | 291 | 11.3 | 22.5 | 0.00 | 0.05 | 0.05 | 50 | 1019.6 |
| 20260905154003 | 21 | 291 | 11.3 | 24.1 | 0.00 | 0.05 | 0.05 | 50 | 1019.5 |
| 20260905153503 | 21 | 295 | 14.5 | 27.4 | 0.00 | 0.05 | 0.05 | 50 | 1019.5 |
| 20260905153003 | 21 | 294 | 12.9 | 27.4 | 0.00 | 0.05 | 0.05 | 51 | 1019.5 |
| 20260905152718 | 21 | 294 | 11.3 | 27.4 | 0.00 | 0.05 | 0.05 | 51 | 1019.5 |
| 20260905152003 | 21 | 290 | 11.3 | 20.9 | 0.00 | 0.05 | 0.05 | 53 | 1019.4 |
| 20260905151503 | 21 | 290 | 12.9 | 22.5 | 0.00 | 0.05 | 0.05 | 53 | 1019.4 |
| 20260905151003 | 21 | 297 | 11.3 | 22.5 | 0.00 | 0.05 | 0.05 | 54 | 1019.5 |
| 20260905150503 | 21 | 301 | 9.7 | 19.3 | 0.00 | 0.05 | 0.05 | 53 | 1019.5 |
| 20260905150003 | 21 | 306 | 11.3 | 22.5 | 0.00 | 0.05 | 0.05 | 53 | 1019.5 |
| 20260905145716 | 21 | 299 | 12.9 | 24.1 | 0.00 | 0.05 | 0.05 | 52 | 1019.4 |
| 20260905145003 | 20 | 291 | 12.9 | 24.1 | 0.00 | 0.05 | 0.05 | 53 | 1019.3 |
| 20260905144503 | 20 | 296 | 11.3 | 20.9 | 0.00 | 0.05 | 0.05 | 53 | 1019.5 |
| 20260905144003 | 20 | 302 | 11.3 | 20.9 | 0.00 | 0.05 | 0.05 | 53 | 1019.5 |
| 20260905143503 | 20 | 310 | 11.3 | 20.9 | 0.00 | 0.05 | 0.05 | 53 | 1019.4 |
| 20260905143003 | 20 | 307 | 12.9 | 22.5 | 0.00 | 0.05 | 0.05 | 52 | 1019.4 |
| 20260905142503 | 20 | 301 | 16.1 | 32.2 | 0.00 | 0.05 | 0.05 | 51 | 1019.5 |
| 20260905142003 | 21 | 300 | 16.1 | 32.2 | 0.00 | 0.05 | 0.05 | 49 | 1019.5 |
| 20260905141503 | 21 | 294 | 14.5 | 30.6 | 0.00 | 0.05 | 0.05 | 49 | 1019.5 |
| 20260905141003 | 20 | 286 | 17.7 | 29.0 | 0.00 | 0.05 | 0.05 | 49 | 1019.6 |
| 20260905140718 | 20 | 287 | 17.7 | 29.0 | 0.00 | 0.05 | 0.05 | 48 | 1019.6 |
| 20260905140003 | 20 | 288 | 14.5 | 27.4 | 0.00 | 0.05 | 0.05 | 48 | 1019.7 |
| 20260905135503 | 20 | 280 | 14.5 | 25.7 | 0.00 | 0.05 | 0.05 | 49 | 1019.5 |
| 20260905135003 | 20 | 276 | 12.9 | 25.7 | 0.00 | 0.05 | 0.05 | 48 | 1019.6 |
| 20260905134503 | 20 | 281 | 11.3 | 22.5 | 0.00 | 0.05 | 0.05 | 49 | 1019.6 |
| 20260905134218 | 20 | 281 | 12.9 | 22.5 | 0.00 | 0.05 | 0.05 | 49 | 1019.7 |
| 20260905133503 | 20 | 277 | 16.1 | 30.6 | 0.00 | 0.05 | 0.05 | 49 | 1019.8 |
| 20260905133003 | 21 | 279 | 16.1 | 27.4 | 0.00 | 0.05 | 0.05 | 49 | 1019.8 |
| 20260905132503 | 21 | 280 | 16.1 | 29.0 | 0.00 | 0.05 | 0.05 | 50 | 1019.8 |
| 20260905132003 | 21 | 283 | 16.1 | 30.6 | 0.00 | 0.05 | 0.05 | 50 | 1019.8 |
| 20260905131503 | 21 | 293 | 17.7 | 30.6 | 0.00 | 0.05 | 0.05 | 50 | 1019.8 |
| 20260905131003 | 21 | 301 | 16.1 | 30.6 | 0.00 | 0.05 | 0.05 | 50 | 1019.9 |
| 20260905130503 | 21 | 298 | 19.3 | 35.4 | 0.00 | 0.05 | 0.05 | 51 | 1019.8 |
| 20260905130003 | 20 | 294 | 17.7 | 35.4 | 0.00 | 0.05 | 0.05 | 51 | 1019.9 |
| 20260905125503 | 21 | 298 | 16.1 | 33.8 | 0.00 | 0.05 | 0.05 | 50 | 1019.9 |
| 20260905125007 | 21 | 297 | 17.7 | 35.4 | 0.00 | 0.05 | 0.05 | 50 | 1019.9 |
| 20260905124503 | 20 | 297 | 19.3 | 35.4 | 0.00 | 0.05 | 0.05 | 50 | 1019.8 |
| 20260905124003 | 20 | 294 | 17.7 | 25.7 | 0.00 | 0.05 | 0.05 | 49 | 1019.8 |
| 20260905123503 | 20 | 294 | 17.7 | 33.8 | 0.00 | 0.05 | 0.05 | 50 | 1019.8 |
| 20260905123003 | 20 | 288 | 19.3 | 38.6 | 0.00 | 0.05 | 0.05 | 50 | 1019.9 |
| 20260905122503 | 20 | 281 | 19.3 | 38.6 | 0.00 | 0.05 | 0.05 | 49 | 1019.9 |
| 20260905122003 | 20 | 285 | 19.3 | 33.8 | 0.00 | 0.05 | 0.05 | 51 | 1020.0 |
| 20260905121503 | 20 | 295 | 19.3 | 32.2 | 0.00 | 0.05 | 0.05 | 53 | 1020.0 |
| 20260905121003 | 20 | 292 | 20.9 | 33.8 | 0.00 | 0.05 | 0.05 | 55 | 1020.1 |
| 20260905120503 | 20 | 279 | 19.3 | 33.8 | 0.00 | 0.05 | 0.05 | 54 | 1020.1 |
| 20260905120003 | 21 | 277 | 17.7 | 33.8 | 0.00 | 0.05 | 0.05 | 50 | 1020.0 |
| 20260905115503 | 20 | 281 | 19.3 | 33.8 | 0.00 | 0.05 | 0.05 | 52 | 1019.9 |
| 20260905115003 | 20 | 287 | 19.3 | 33.8 | 0.00 | 0.05 | 0.05 | 51 | 1020.0 |
| 20260905114717 | 20 | 290 | 17.7 | 33.8 | 0.00 | 0.05 | 0.05 | 52 | 1020.0 |
| 20260905114003 | 20 | 289 | 19.3 | 37.0 | 0.00 | 0.05 | 0.05 | 57 | 1019.9 |
| 20260905113503 | 20 | 282 | 17.7 | 30.6 | 0.00 | 0.05 | 0.05 | 54 | 1019.9 |
| 20260905113004 | 20 | 280 | 16.1 | 30.6 | 0.00 | 0.05 | 0.05 | 54 | 1019.9 |
| 20260905112503 | 20 | 292 | 14.5 | 30.6 | 0.00 | 0.05 | 0.05 | 53 | 1020.0 |
| 20260905112003 | 20 | 287 | 17.7 | 30.6 | 0.00 | 0.05 | 0.05 | 53 | 1020.0 |
| 20260905111503 | 20 | 273 | 19.3 | 37.0 | 0.00 | 0.05 | 0.05 | 57 | 1019.9 |
| 20260905111003 | 20 | 272 | 19.3 | 37.0 | 0.00 | 0.05 | 0.05 | 55 | 1019.9 |
| 20260905110503 | 20 | 274 | 17.7 | 32.2 | 0.00 | 0.05 | 0.05 | 55 | 1019.8 |
| 20260905110003 | 20 | 279 | 17.7 | 30.6 | 0.00 | 0.05 | 0.05 | 55 | 1019.9 |
| 20260905105503 | 20 | 287 | 19.3 | 33.8 | 0.00 | 0.05 | 0.05 | 59 | 1019.8 |
| 20260905105003 | 20 | 283 | 17.7 | 33.8 | 0.00 | 0.05 | 0.05 | 59 | 1019.9 |
| 20260905104503 | 20 | 274 | 14.5 | 29.0 | 0.00 | 0.05 | 0.05 | 59 | 1019.8 |
| 20260905104003 | 19 | 272 | 12.9 | 29.0 | 0.00 | 0.05 | 0.05 | 59 | 1019.8 |
| 20260905103503 | 19 | 280 | 11.3 | 22.5 | 0.00 | 0.05 | 0.05 | 61 | 1019.9 |
| 20260905103003 | 18 | 272 | 11.3 | 22.5 | 0.00 | 0.05 | 0.05 | 61 | 1020.1 |
| 20260905102503 | 18 | 261 | 11.3 | 24.1 | 0.00 | 0.05 | 0.05 | 63 | 1020.0 |
| 20260905102003 | 18 | 270 | 12.9 | 25.7 | 0.00 | 0.05 | 0.05 | 62 | 1019.9 |
| 20260905101503 | 18 | 279 | 14.5 | 25.7 | 0.00 | 0.05 | 0.05 | 60 | 1019.9 |
| 20260905101003 | 18 | 289 | 12.9 | 24.1 | 0.00 | 0.05 | 0.05 | 64 | 1019.9 |
| 20260905100716 | 18 | 292 | 11.3 | 24.1 | 0.00 | 0.05 | 0.05 | 63 | 1020.0 |
| 20260905100003 | 18 | 313 | 9.7 | 20.9 | 0.00 | 0.05 | 0.05 | 68 | 1020.0 |
| 20260905095503 | 18 | 306 | 11.3 | 20.9 | 0.00 | 0.05 | 0.05 | 67 | 1020.1 |
| 20260905095219 | 18 | 293 | 12.9 | 22.5 | 0.00 | 0.05 | 0.05 | 67 | 1020.1 |
| 20260905094504 | 18 | 286 | 14.5 | 27.4 | 0.00 | 0.05 | 0.05 | 65 | 1020.1 |
| 20260905094003 | 18 | 287 | 14.5 | 27.4 | 0.00 | 0.05 | 0.05 | 67 | 1020.3 |
| 20260905093503 | 18 | 289 | 12.9 | 25.7 | 0.00 | 0.05 | 0.05 | 67 | 1020.4 |
| 20260905093219 | 18 | 291 | 11.3 | 24.1 | 0.00 | 0.05 | 0.05 | 69 | 1020.3 |
| 20260905092503 | 17 | 289 | 9.7 | 24.1 | 0.00 | 0.05 | 0.05 | 69 | 1020.3 |
| 20260905092003 | 17 | 306 | 9.7 | 24.1 | 0.00 | 0.05 | 0.05 | 70 | 1020.3 |
| 20260905091718 | 17 | 303 | 11.3 | 17.7 | 0.00 | 0.05 | 0.05 | 70 | 1020.3 |
| 20260905091003 | 17 | 301 | 11.3 | 20.9 | 0.00 | 0.05 | 0.05 | 71 | 1020.2 |
| 20260905090503 | 17 | 312 | 8.0 | 20.9 | 0.00 | 0.05 | 0.05 | 72 | 1020.2 |
| 20260905090003 | 17 | 313 | 8.0 | 17.7 | 0.00 | 0.05 | 0.05 | 72 | 1020.1 |
| 20260905085503 | 17 | 303 | 9.7 | 17.7 | 0.00 | 0.05 | 0.05 | 72 | 1019.9 |
| 20260905085219 | 17 | 300 | 11.3 | 20.9 | 0.00 | 0.05 | 0.05 | 72 | 1019.9 |
| 20260905084504 | 17 | 309 | 12.9 | 20.9 | 0.00 | 0.05 | 0.05 | 72 | 1019.9 |
| 20260905084003 | 17 | 302 | 12.9 | 20.9 | 0.00 | 0.05 | 0.05 | 72 | 1019.9 |
| 20260905083503 | 17 | 303 | 12.9 | 20.9 | 0.00 | 0.05 | 0.05 | 72 | 1019.9 |
| 20260905083003 | 16 | 302 | 12.9 | 20.9 | 0.00 | 0.05 | 0.05 | 72 | 1020.1 |
| 20260905082503 | 16 | 295 | 12.9 | 20.9 | 0.00 | 0.05 | 0.05 | 73 | 1019.9 |
| 20260905082003 | 17 | 295 | 11.3 | 20.9 | 0.00 | 0.05 | 0.05 | 72 | 1020.0 |
| 20260905081503 | 17 | 288 | 11.3 | 24.1 | 0.00 | 0.05 | 0.05 | 73 | 1020.0 |
| 20260905081003 | 16 | 274 | 9.7 | 24.1 | 0.00 | 0.05 | 0.05 | 73 | 1019.8 |
| 20260905080503 | 16 | 273 | 8.0 | 16.1 | 0.00 | 0.05 | 0.05 | 74 | 1019.8 |
| 20260905080003 | 16 | 286 | 6.4 | 16.1 | 0.00 | 0.05 | 0.05 | 74 | 1019.7 |
| 20260905075503 | 16 | 303 | 4.8 | 16.1 | 0.00 | 0.05 | 0.05 | 74 | 1019.6 |
| 20260905075003 | 16 | 309 | 3.2 | 11.3 | 0.00 | 0.05 | 0.05 | 74 | 1019.5 |
| 20260905074503 | 16 | 310 | 1.6 | 6.4 | 0.00 | 0.05 | 0.05 | 74 | 1019.6 |
| 20260905074216 | 15 | 0 | 0.0 | 0.0 | 0.00 | 0.05 | 0.05 | 74 | 1019.6 |
| 20260905073503 | 15 | 310 | 1.6 | 8.0 | 0.00 | 0.05 | 0.05 | 74 | 1019.6 |
| 20260905073004 | 15 | 310 | 1.6 | 6.4 | 0.00 | 0.05 | 0.05 | 73 | 1019.5 |
| 20260905072719 | 15 | 311 | 0.0 | 6.4 | 0.00 | 0.05 | 0.05 | 73 | 1019.5 |
| 20260905072003 | 15 | 0 | 0.0 | 0.0 | 0.00 | 0.05 | 0.05 | 72 | 1019.5 |
| 20260905071503 | 15 | 0 | 0.0 | 0.0 | 0.00 | 0.05 | 0.05 | 72 | 1019.6 |
| 20260905071003 | 15 | 0 | 0.0 | 0.0 | 0.00 | 0.05 | 0.05 | 70 | 1019.5 |
| 20260905070503 | 14 | 0 | 0.0 | 0.0 | 0.00 | 0.05 | 0.05 | 70 | 1019.4 |
| 20260905070003 | 14 | 345 | 1.6 | 3.2 | 0.00 | 0.05 | 0.05 | 70 | 1019.3 |
| 20260905065503 | 14 | 331 | 3.2 | 9.7 | 0.00 | 0.05 | 0.05 | 70 | 1019.4 |
| 20260905065003 | 14 | 325 | 3.2 | 9.7 | 0.00 | 0.05 | 0.05 | 70 | 1019.5 |
| 20260905064719 | 14 | 325 | 3.2 | 6.4 | 0.00 | 0.05 | 0.05 | 69 | 1019.5 |
| 20260905064003 | 14 | 339 | 0.0 | 6.4 | 0.00 | 0.05 | 0.05 | 69 | 1019.6 |
| 20260905063503 | 14 | 29 | 0.0 | 4.8 | 0.00 | 0.05 | 0.05 | 69 | 1019.6 |
| 20260905063003 | 14 | 336 | 1.6 | 4.8 | 0.00 | 0.05 | 0.05 | 68 | 1019.3 |
| 20260905062503 | 14 | 335 | 3.2 | 11.3 | 0.00 | 0.05 | 0.05 | 68 | 1019.3 |
| 20260905062003 | 14 | 2 | 4.8 | 11.3 | 0.00 | 0.05 | 0.05 | 69 | 1019.2 |
| 20260905061503 | 14 | 12 | 4.8 | 11.3 | 0.00 | 0.05 | 0.05 | 68 | 1019.0 |
| 20260905061218 | 14 | 6 | 4.8 | 11.3 | 0.03 | 0.05 | 0.05 | 68 | 1018.9 |
| 20260905060503 | 14 | 346 | 4.8 | 9.7 | 0.03 | 0.05 | 0.05 | 68 | 1019.1 |
| 20260905060003 | 14 | 346 | 6.4 | 17.7 | 0.03 | 0.05 | 0.05 | 69 | 1019.0 |
| 20260905055503 | 14 | 340 | 9.7 | 17.7 | 0.05 | 0.05 | 0.05 | 69 | 1019.1 |
| 20260905055003 | 14 | 326 | 8.0 | 17.7 | 0.05 | 0.05 | 0.05 | 71 | 1018.8 |
| 20260905054718 | 14 | 311 | 8.0 | 17.7 | 0.05 | 0.05 | 0.05 | 72 | 1018.3 |
| 20260905054003 | 15 | 299 | 6.4 | 20.9 | 0.05 | 0.05 | 0.05 | 71 | 1017.7 |
| 20260905053507 | 15 | 297 | 6.4 | 20.9 | 0.05 | 0.05 | 0.05 | 70 | 1017.8 |
| 20260905053003 | 15 | 295 | 9.7 | 24.1 | 0.05 | 0.05 | 0.05 | 70 | 1017.7 |
| 20260905052503 | 15 | 292 | 11.3 | 24.1 | 0.05 | 0.05 | 0.05 | 70 | 1018.2 |
| 20260905052003 | 15 | 293 | 9.7 | 22.5 | 0.05 | 0.05 | 0.05 | 70 | 1018.1 |
| 20260905051503 | 15 | 304 | 12.9 | 29.0 | 0.05 | 0.05 | 0.05 | 70 | 1018.1 |
| 20260905051003 | 15 | 315 | 12.9 | 29.0 | 0.03 | 0.03 | 0.03 | 70 | 1018.3 |
| 20260905050503 | 15 | 321 | 8.0 | 19.3 | 0.03 | 0.03 | 0.03 | 68 | 1018.3 |
| 20260905050003 | 15 | 323 | 1.6 | 14.5 | 0.03 | 0.03 | 0.03 | 70 | 1018.2 |
| 20260905045716 | 16 | 298 | 3.2 | 17.7 | 0.00 | 0.00 | 0.00 | 71 | 1018.3 |
| 20260905045003 | 16 | 296 | 4.8 | 17.7 | 0.00 | 0.00 | 0.00 | 73 | 1018.1 |
| 20260905044718 | 16 | 298 | 3.2 | 17.7 | 0.00 | 0.00 | 0.00 | 73 | 1018.1 |
| 20260905044003 | 16 | 299 | 0.0 | 8.0 | 0.00 | 0.00 | 0.00 | 73 | 1018.1 |
| 20260905043503 | 16 | 292 | 0.0 | 9.7 | 0.00 | 0.00 | 0.00 | 73 | 1018.1 |
| 20260905043003 | 16 | 314 | 0.0 | 9.7 | 0.00 | 0.00 | 0.00 | 72 | 1017.9 |
| 20260905042503 | 16 | 341 | 0.0 | 4.8 | 0.00 | 0.00 | 0.00 | 72 | 1017.5 |
| 20260905042219 | 16 | 341 | 0.0 | 4.8 | 0.00 | 0.00 | 0.00 | 72 | 1017.4 |
| 20260905041503 | 16 | 309 | 1.6 | 14.5 | 0.00 | 0.00 | 0.00 | 73 | 1017.4 |
| 20260905041217 | 16 | 309 | 1.6 | 14.5 | 0.00 | 0.00 | 0.00 | 73 | 1017.3 |
| 20260905040718 | 16 | 305 | 1.6 | 11.3 | 0.00 | 0.00 | 0.00 | 73 | 1017.2 |
| 20260905040003 | 16 | 304 | 1.6 | 14.5 | 0.00 | 0.00 | 0.00 | 72 | 1018.2 |
| 20260905035503 | 16 | 313 | 1.6 | 11.3 | 0.00 | 0.00 | 0.00 | 72 | 1017.7 |
| 20260905035217 | 16 | 311 | 0.0 | 8.0 | 0.00 | 0.00 | 0.00 | 72 | 1017.5 |
| 20260905034503 | 17 | 317 | 0.0 | 3.2 | 0.00 | 0.00 | 0.00 | 72 | 1017.1 |
| 20260905034219 | 17 | 350 | 0.0 | 6.4 | 0.00 | 0.00 | 0.00 | 72 | 1016.9 |
| 20260905033503 | 17 | 340 | 0.0 | 6.4 | 0.00 | 0.00 | 0.00 | 72 | 1016.7 |
| 20260905033003 | 17 | 288 | 0.0 | 1.6 | 0.00 | 0.00 | 0.00 | 73 | 1017.5 |
| 20260905032503 | 17 | 305 | 1.6 | 14.5 | 0.00 | 0.00 | 0.00 | 72 | 1017.4 |
| 20260905032003 | 17 | 303 | 1.6 | 14.5 | 0.00 | 0.00 | 0.00 | 73 | 1016.9 |
| 20260905031503 | 17 | 309 | 1.6 | 17.7 | 0.00 | 0.00 | 0.00 | 73 | 1016.9 |
| 20260905031003 | 17 | 320 | 1.6 | 17.7 | 0.00 | 0.00 | 0.00 | 73 | 1016.9 |
| 20260905030504 | 17 | 319 | 3.2 | 20.9 | 0.00 | 0.00 | 0.00 | 73 | 1016.8 |
| 20260905030003 | 17 | 313 | 4.8 | 20.9 | 0.00 | 0.00 | 0.00 | 73 | 1017.0 |
| 20260905025503 | 17 | 315 | 4.8 | 17.7 | 0.00 | 0.00 | 0.00 | 73 | 1017.1 |
| 20260905025003 | 17 | 320 | 1.6 | 12.9 | 0.00 | 0.00 | 0.00 | 74 | 1017.0 |
| 20260905024503 | 17 | 348 | 0.0 | 9.7 | 0.00 | 0.00 | 0.00 | 74 | 1016.6 |
| 20260905024003 | 17 | 339 | 1.6 | 9.7 | 0.00 | 0.00 | 0.00 | 74 | 1016.9 |
| 20260905023503 | 17 | 332 | 1.6 | 14.5 | 0.00 | 0.00 | 0.00 | 74 | 1016.8 |
| 20260905023003 | 17 | 327 | 1.6 | 14.5 | 0.00 | 0.00 | 0.00 | 73 | 1016.8 |
| 20260905022503 | 17 | 315 | 0.0 | 8.0 | 0.00 | 0.00 | 0.00 | 73 | 1016.5 |
| 20260905022003 | 17 | 315 | 0.0 | 11.3 | 0.00 | 0.00 | 0.00 | 74 | 1016.3 |
| 20260905021503 | 17 | 318 | 0.0 | 11.3 | 0.00 | 0.00 | 0.00 | 73 | 1016.1 |
| 20260905021003 | 17 | 317 | 0.0 | 11.3 | 0.00 | 0.00 | 0.00 | 73 | 1016.1 |
| 20260905020503 | 18 | 314 | 0.0 | 11.3 | 0.00 | 0.00 | 0.00 | 73 | 1016.2 |
| 20260905020003 | 18 | 311 | 0.0 | 11.3 | 0.00 | 0.00 | 0.00 | 73 | 1016.2 |
| 20260905015503 | 18 | 313 | 1.6 | 14.5 | 0.00 | 0.00 | 0.00 | 72 | 1015.9 |
| 20260905015003 | 18 | 312 | 1.6 | 14.5 | 0.00 | 0.00 | 0.00 | 72 | 1016.2 |
| 20260905014503 | 18 | 300 | 3.2 | 22.5 | 0.00 | 0.00 | 0.00 | 72 | 1016.1 |
| 20260905014003 | 18 | 299 | 4.8 | 22.5 | 0.00 | 0.00 | 0.00 | 72 | 1016.2 |
| 20260905013719 | 18 | 302 | 6.4 | 22.5 | 0.00 | 0.00 | 0.00 | 72 | 1016.1 |
| 20260905013003 | 18 | 313 | 9.7 | 20.9 | 0.00 | 0.00 | 0.00 | 72 | 1016.1 |
| 20260905012503 | 18 | 315 | 9.7 | 20.9 | 0.00 | 0.00 | 0.00 | 72 | 1015.8 |
| 20260905012003 | 18 | 308 | 8.0 | 24.1 | 0.00 | 0.00 | 0.00 | 72 | 1015.8 |
| 20260905011503 | 18 | 303 | 11.3 | 24.1 | 0.00 | 0.00 | 0.00 | 72 | 1015.8 |
| 20260905011003 | 18 | 308 | 9.7 | 22.5 | 0.00 | 0.00 | 0.00 | 71 | 1016.1 |
| 20260905010503 | 18 | 314 | 8.0 | 20.9 | 0.00 | 0.00 | 0.00 | 71 | 1015.9 |
| 20260905010003 | 19 | 311 | 9.7 | 22.5 | 0.00 | 0.00 | 0.00 | 69 | 1015.9 |
| 20260905005503 | 19 | 311 | 12.9 | 22.5 | 0.00 | 0.00 | 0.00 | 68 | 1015.8 |
| 20260905005007 | 20 | 315 | 14.5 | 32.2 | 0.00 | 0.00 | 0.00 | 66 | 1015.6 |
| 20260905004503 | 20 | 316 | 12.9 | 32.2 | 0.00 | 0.00 | 0.00 | 66 | 1015.4 |
| 20260905004003 | 20 | 316 | 11.3 | 30.6 | 0.00 | 0.00 | 0.00 | 65 | 1015.3 |
| 20260905003504 | 20 | 318 | 16.1 | 29.0 | 0.00 | 0.00 | 0.00 | 65 | 1014.9 |
| 20260905003004 | 20 | 317 | 16.1 | 29.0 | 0.00 | 0.00 | 0.00 | 65 | 1015.2 |
| 20260905002717 | 20 | 317 | 14.5 | 29.0 | 0.00 | 0.00 | 0.00 | 67 | 1015.3 |
| 20260905002217 | 21 | 312 | 16.1 | 29.0 | 0.00 | 0.00 | 0.00 | 68 | 1015.2 |
| 20260905001503 | 21 | 306 | 16.1 | 30.6 | 0.00 | 0.00 | 0.00 | 68 | 1015.0 |
| 20260905001003 | 21 | 306 | 16.1 | 30.6 | 0.00 | 0.00 | 0.00 | 68 | 1014.0 |
| 20260905000503 | 21 | 299 | 16.1 | 25.7 | 0.00 | 0.00 | 0.00 | 67 | 1013.8 |
| 20260905000219 | 22 | 299 | 14.5 | 25.7 | 0.00 | 0.00 | 0.00 | 66 | 1013.8 |
| 20260904235503 | 22 | 309 | 12.9 | 25.7 | 0.00 | 0.00 | 0.00 | 64 | 1013.4 |
| 20260904235219 | 22 | 311 | 12.9 | 27.4 | 0.00 | 0.00 | 0.00 | 64 | 1013.3 |
| 20260904234503 | 22 | 313 | 9.7 | 27.4 | 0.00 | 0.00 | 0.00 | 64 | 1013.1 |
| 20260904234003 | 21 | 308 | 4.8 | 19.3 | 0.00 | 0.00 | 0.00 | 63 | 1013.1 |
| 20260904233504 | 21 | 300 | 0.0 | 8.0 | 0.00 | 0.00 | 0.00 | 62 | 1013.0 |
| 20260904233003 | 22 | 0 | 0.0 | 0.0 | 0.00 | 0.00 | 0.00 | 61 | 1012.6 |
| 20260904232503 | 22 | 265 | 0.0 | 1.6 | 0.00 | 0.00 | 0.00 | 60 | 1012.5 |
| 20260904232217 | 22 | 265 | 0.0 | 1.6 | 0.00 | 0.00 | 0.00 | 60 | 1012.5 |
| 20260904231503 | 22 | 0 | 0.0 | 0.0 | 0.00 | 0.00 | 0.00 | 59 | 1012.6 |
| 20260904231003 | 22 | 262 | 0.0 | 1.6 | 0.00 | 0.00 | 0.00 | 59 | 1012.5 |
| 20260904230716 | 22 | 262 | 0.0 | 1.6 | 0.00 | 0.00 | 0.00 | 59 | 1012.6 |
| 20260904230003 | 22 | 0 | 0.0 | 0.0 | 0.00 | 0.00 | 0.00 | 59 | 1012.5 |
| 20260904225503 | 22 | 0 | 0.0 | 0.0 | 0.00 | 0.00 | 0.00 | 58 | 1012.4 |
| 20260904225003 | 22 | 0 | 0.0 | 0.0 | 0.00 | 0.00 | 0.00 | 57 | 1012.4 |
| 20260904224504 | 23 | 0 | 0.0 | 0.0 | 0.00 | 0.00 | 0.00 | 57 | 1012.4 |
| 20260904224003 | 23 | 0 | 0.0 | 0.0 | 0.00 | 0.00 | 0.00 | 56 | 1012.4 |
| 20260904223503 | 23 | 99 | 0.0 | 1.6 | 0.00 | 0.00 | 0.00 | 56 | 1012.4 |
| 20260904223003 | 23 | 83 | 0.0 | 4.8 | 0.00 | 0.00 | 0.00 | 56 | 1012.4 |
| 20260904222503 | 23 | 81 | 0.0 | 4.8 | 0.00 | 0.00 | 0.00 | 56 | 1012.3 |
| 20260904222003 | 23 | 227 | 0.0 | 3.2 | 0.00 | 0.00 | 0.00 | 55 | 1012.3 |
| 20260904221503 | 23 | 212 | 0.0 | 3.2 | 0.00 | 0.00 | 0.00 | 55 | 1012.3 |
| 20260904221219 | 23 | 202 | 0.0 | 3.2 | 0.00 | 0.00 | 0.00 | 55 | 1012.2 |
| 20260904220716 | 23 | 0 | 0.0 | 0.0 | 0.00 | 0.00 | 0.00 | 55 | 1012.2 |
| 20260904220004 | 23 | 0 | 0.0 | 0.0 | 0.00 | 0.00 | 0.00 | 55 | 1012.2 |
| 20260904215503 | 23 | 0 | 0.0 | 0.0 | 0.00 | 0.00 | 0.00 | 55 | 1012.2 |
| 20260904215003 | 23 | 0 | 0.0 | 0.0 | 0.00 | 0.00 | 0.00 | 55 | 1012.3 |
| 20260904214503 | 23 | 0 | 0.0 | 0.0 | 0.00 | 0.00 | 0.00 | 55 | 1012.2 |
| 20260904214003 | 23 | 0 | 0.0 | 0.0 | 0.00 | 0.00 | 0.00 | 55 | 1012.1 |
| 20260904213503 | 23 | 114 | 0.0 | 4.8 | 0.00 | 0.00 | 0.00 | 55 | 1012.1 |
| 20260904213003 | 23 | 116 | 0.0 | 4.8 | 0.00 | 0.00 | 0.00 | 55 | 1012.2 |
| 20260904212503 | 23 | 126 | 0.0 | 4.8 | 0.00 | 0.00 | 0.00 | 55 | 1012.2 |
| 20260904212221 | 23 | 126 | 0.0 | 4.8 | 0.00 | 0.00 | 0.00 | 55 | 1012.2 |
| 20260904211503 | 23 | 136 | 0.0 | 1.6 | 0.00 | 0.00 | 0.00 | 55 | 1012.2 |
| 20260904211003 | 23 | 136 | 0.0 | 1.6 | 0.00 | 0.00 | 0.00 | 55 | 1012.2 |
| 20260904210503 | 23 | 0 | 0.0 | 0.0 | 0.00 | 0.00 | 0.00 | 55 | 1012.2 |
| 20260904210003 | 23 | 0 | 0.0 | 0.0 | 0.00 | 0.00 | 0.00 | 55 | 1012.2 |
| 20260904205503 | 23 | 114 | 0.0 | 6.4 | 0.00 | 0.00 | 0.00 | 55 | 1012.3 |
| 20260904205218 | 23 | 114 | 0.0 | 6.4 | 0.00 | 0.00 | 0.00 | 55 | 1012.3 |
| 20260904204503 | 23 | 118 | 0.0 | 1.6 | 0.00 | 0.00 | 0.00 | 54 | 1012.4 |
| 20260904204003 | 23 | 118 | 0.0 | 1.6 | 0.00 | 0.00 | 0.00 | 54 | 1012.4 |
| 20260904203503 | 24 | 0 | 0.0 | 0.0 | 0.00 | 0.00 | 0.00 | 54 | 1012.4 |
| 20260904203003 | 24 | 102 | 0.0 | 1.6 | 0.00 | 0.00 | 0.00 | 54 | 1012.4 |
| 20260904202719 | 24 | 133 | 0.0 | 3.2 | 0.00 | 0.00 | 0.00 | 54 | 1012.4 |
| 20260904202003 | 24 | 130 | 0.0 | 3.2 | 0.00 | 0.00 | 0.00 | 54 | 1012.5 |
| 20260904201503 | 24 | 128 | 0.0 | 1.6 | 0.00 | 0.00 | 0.00 | 53 | 1012.5 |
| 20260904201003 | 24 | 128 | 0.0 | 1.6 | 0.00 | 0.00 | 0.00 | 53 | 1012.5 |
| 20260904200719 | 25 | 128 | 0.0 | 1.6 | 0.00 | 0.00 | 0.00 | 53 | 1012.5 |
| 20260904200216 | 25 | 187 | 0.0 | 1.6 | 0.00 | 0.00 | 0.00 | 52 | 1012.6 |
| 20260904195503 | 25 | 187 | 0.0 | 1.6 | 0.00 | 0.00 | 0.00 | 52 | 1012.6 |
| 20260904195003 | 25 | 201 | 0.0 | 8.0 | 0.00 | 0.00 | 0.00 | 51 | 1012.6 |
| 20260904194503 | 25 | 198 | 1.6 | 11.3 | 0.00 | 0.00 | 0.00 | 51 | 1012.6 |
| 20260904194216 | 25 | 197 | 0.0 | 11.3 | 0.00 | 0.00 | 0.00 | 51 | 1012.6 |
| 20260904193503 | 25 | 182 | 0.0 | 9.7 | 0.00 | 0.00 | 0.00 | 52 | 1012.6 |
| 20260904193003 | 25 | 171 | 1.6 | 9.7 | 0.00 | 0.00 | 0.00 | 52 | 1012.6 |
| 20260904192503 | 24 | 149 | 1.6 | 8.0 | 0.00 | 0.00 | 0.00 | 53 | 1012.7 |
| 20260904192003 | 24 | 120 | 0.0 | 4.8 | 0.00 | 0.00 | 0.00 | 55 | 1012.7 |
| 20260904191503 | 24 | 0 | 0.0 | 0.0 | 0.00 | 0.00 | 0.00 | 55 | 1012.7 |
| 20260904191003 | 23 | 0 | 0.0 | 0.0 | 0.00 | 0.00 | 0.00 | 55 | 1012.7 |
| 20260904190503 | 23 | 120 | 1.6 | 6.4 | 0.00 | 0.00 | 0.00 | 56 | 1012.9 |
| 20260904190003 | 24 | 121 | 1.6 | 6.4 | 0.00 | 0.00 | 0.00 | 56 | 1012.9 |
| 20260904185503 | 24 | 143 | 0.0 | 4.8 | 0.00 | 0.00 | 0.00 | 55 | 1012.8 |
| 20260904185218 | 24 | 143 | 0.0 | 4.8 | 0.00 | 0.00 | 0.00 | 55 | 1012.9 |
| 20260904184718 | 24 | 125 | 0.0 | 4.8 | 0.00 | 0.00 | 0.00 | 54 | 1012.9 |
| 20260904184003 | 24 | 114 | 1.6 | 4.8 | 0.00 | 0.00 | 0.00 | 54 | 1013.0 |
| 20260904183503 | 24 | 112 | 0.0 | 4.8 | 0.00 | 0.00 | 0.00 | 53 | 1013.1 |
| 20260904183217 | 25 | 124 | 0.0 | 4.8 | 0.00 | 0.00 | 0.00 | 53 | 1013.0 |
| 20260904182718 | 25 | 276 | 0.0 | 3.2 | 0.00 | 0.00 | 0.00 | 52 | 1013.1 |
| 20260904182003 | 25 | 285 | 0.0 | 1.6 | 0.00 | 0.00 | 0.00 | 51 | 1013.1 |
| 20260904181503 | 25 | 285 | 0.0 | 1.6 | 0.00 | 0.00 | 0.00 | 51 | 1013.1 |
| 20260904181003 | 25 | 0 | 0.0 | 0.0 | 0.00 | 0.00 | 0.00 | 51 | 1013.0 |
| 20260904180503 | 25 | 0 | 0.0 | 0.0 | 0.00 | 0.00 | 0.00 | 50 | 1013.0 |
| 20260904180003 | 26 | 0 | 0.0 | 0.0 | 0.00 | 0.00 | 0.00 | 50 | 1012.9 |
| 20260904175503 | 26 | 0 | 0.0 | 0.0 | 0.00 | 0.00 | 0.00 | 50 | 1012.9 |
| 20260904175003 | 26 | 0 | 0.0 | 0.0 | 0.00 | 0.00 | 0.00 | 49 | 1012.8 |
| 20260904174503 | 26 | 0 | 0.0 | 0.0 | 0.00 | 0.00 | 0.00 | 49 | 1012.7 |
| 20260904174003 | 26 | 0 | 0.0 | 0.0 | 0.00 | 0.00 | 0.00 | 49 | 1012.7 |
| 20260904173503 | 26 | 0 | 0.0 | 0.0 | 0.00 | 0.00 | 0.00 | 48 | 1012.6 |
| 20260904173003 | 26 | 241 | 1.6 | 14.5 | 0.00 | 0.00 | 0.00 | 48 | 1012.5 |
| 20260904172503 | 27 | 223 | 1.6 | 14.5 | 0.00 | 0.00 | 0.00 | 47 | 1012.5 |
| 20260904172003 | 27 | 206 | 1.6 | 11.3 | 0.00 | 0.00 | 0.00 | 47 | 1012.4 |
| 20260904171716 | 27 | 211 | 0.0 | 11.3 | 0.00 | 0.00 | 0.00 | 47 | 1012.4 |
| 20260904171003 | 27 | 232 | 0.0 | 3.2 | 0.00 | 0.00 | 0.00 | 46 | 1012.3 |
| 20260904170503 | 27 | 204 | 0.0 | 16.1 | 0.00 | 0.00 | 0.00 | 45 | 1012.3 |